Long Beach, North Carolina
Current Conditions -  °F | °C
As of 2:15 AM on Saturday 29 Nov 2014 (Local Time) from KSUT Reporting Station
Clear Clear  
Wind Chill: 31°   Ceiling: Unl
Heat Index: 31°   Visibility: 10mi
Dew Point: 28°   Wind: 0mph
Humidity: 91%   Direction: NA
Pressure: 30.34"   Gusts: NA
Location:  33.9216°N, 78.1244°W
Report Text: KSUT 290715Z AUTO 00000KT 10SM CLR M01/M02 A3034 RMK AO2 T10071020
Loading
Personal Weather Stations






























Interactive Weather Map New forecast layout! Learn more

10-Day Weather Forecast

Advertisements
Track Severe Weather on mobile